Time;durP1;ratioP1;P1;durP2;ratioP2;P2;SDS_P1;SDS_P2;PMS_P1;PMS_P2;Temp;Humidity;BMP_temperature;BMP_pressure;BME280_temperature;BME280_humidity;BME280_pressure;Samples;Min_cycle;Max_cycle;Signal;HPM_P1;HPM_P2
2022/04/11 00:00:44;;;;;;;7.88;4.30;;;3.50;99.90;;;;;;5072588;28;20024;-72
2022/04/11 00:03:09;;;;;;;8.35;4.25;;;3.50;99.90;;;;;;5072340;28;20029;-72
2022/04/11 00:05:41;;;;;;;6.65;3.70;;;3.50;99.90;;;;;;5071471;28;20020;-72
2022/04/11 00:08:07;;;;;;;9.45;4.18;;;3.50;99.90;;;;;;5072648;28;20021;-72
2022/04/11 00:10:33;;;;;;;6.60;4.30;;;3.50;99.90;;;;;;5045653;28;20048;-72
2022/04/11 00:13:06;;;;;;;6.47;4.15;;;3.50;99.90;;;;;;5031453;28;20052;-72
2022/04/11 00:15:38;;;;;;;9.23;4.60;;;3.50;99.90;;;;;;5042815;28;20029;-72
2022/04/11 00:18:04;;;;;;;8.07;4.38;;;3.40;99.90;;;;;;5052288;28;20063;-72
2022/04/11 00:20:30;;;;;;;10.98;6.38;;;3.40;99.90;;;;;;5052473;28;20706;-72
2022/04/11 00:22:56;;;;;;;12.60;5.88;;;3.30;99.90;;;;;;5052483;28;20025;-72
2022/04/11 00:25:22;;;;;;;13.27;7.07;;;3.30;99.90;;;;;;5039096;28;20060;-71
2022/04/11 00:27:47;;;;;;;16.88;7.30;;;3.20;99.90;;;;;;5031390;28;20435;-71
2022/04/11 00:30:13;;;;;;;11.60;7.43;;;3.20;99.90;;;;;;5032295;28;20036;-72
2022/04/11 00:32:41;;;;;;;9.32;5.43;;;3.20;99.90;;;;;;5031109;28;20116;-72
2022/04/11 00:35:08;;;;;;;10.43;5.43;;;3.10;99.90;;;;;;5032352;28;20029;-72
2022/04/11 00:37:37;;;;;;;10.35;6.20;;;3.10;99.90;;;;;;5032063;28;20026;-72
2022/04/11 00:40:08;;;;;;;12.85;5.78;;;3.10;99.90;;;;;;5031021;28;20080;-71
2022/04/11 00:42:34;;;;;;;12.05;5.70;;;3.10;99.90;;;;;;5044773;28;20108;-71
2022/04/11 00:45:03;;;;;;;14.38;6.55;;;3.10;99.90;;;;;;5050608;28;20159;-73
2022/04/11 00:47:30;;;;;;;10.73;6.15;;;3.00;99.90;;;;;;5040712;28;20028;-72
2022/04/11 00:50:06;;;;;;;12.18;6.03;;;3.00;99.90;;;;;;5051199;28;20422;-71
2022/04/11 00:52:50;;;;;;;13.15;8.32;;;2.90;99.90;;;;;;5050746;28;20162;-72
2022/04/11 00:55:21;;;;;;;13.32;6.40;;;2.90;99.90;;;;;;5050847;28;20021;-72
2022/04/11 00:57:51;;;;;;;13.68;6.82;;;2.80;99.90;;;;;;5051954;28;20505;-71
2022/04/11 01:00:17;;;;;;;17.90;8.13;;;2.80;99.90;;;;;;5051694;28;20029;-72
2022/04/11 01:02:43;;;;;;;12.77;5.95;;;2.80;99.90;;;;;;5051558;28;20086;-73
2022/04/11 01:05:10;;;;;;;13.35;6.57;;;2.70;99.90;;;;;;5047213;28;20033;-72
2022/04/11 01:07:36;;;;;;;14.23;7.70;;;2.70;99.90;;;;;;5051945;28;20154;-72
2022/04/11 01:10:04;;;;;;;11.45;6.72;;;2.70;99.90;;;;;;5050506;28;20021;-71
2022/04/11 01:12:33;;;;;;;13.00;6.65;;;2.60;99.90;;;;;;5050185;28;20029;-72
2022/04/11 01:14:58;;;;;;;17.42;7.65;;;2.60;99.90;;;;;;5052887;28;20405;-72
2022/04/11 01:17:34;;;;;;;12.23;6.32;;;2.60;99.90;;;;;;5047956;28;20025;-71
2022/04/11 01:20:10;;;;;;;13.50;6.05;;;2.50;99.90;;;;;;5050080;28;20029;-72
2022/04/11 01:22:36;;;;;;;13.77;6.78;;;2.50;99.90;;;;;;5040586;28;20649;-72
2022/04/11 01:25:03;;;;;;;12.90;6.57;;;2.50;99.90;;;;;;5055724;28;20398;-71
2022/04/11 01:27:31;;;;;;;12.48;6.72;;;2.50;99.90;;;;;;5054574;28;20038;-72
2022/04/11 01:29:57;;;;;;;13.05;6.15;;;2.50;99.90;;;;;;5049753;28;20493;-72
2022/04/11 01:32:23;;;;;;;10.95;6.57;;;2.50;99.90;;;;;;5054382;28;20021;-71
2022/04/11 01:34:49;;;;;;;15.93;7.28;;;2.50;99.90;;;;;;5044913;28;20091;-72
2022/04/11 01:37:17;;;;;;;11.98;6.43;;;2.50;99.90;;;;;;5052019;23;20047;-79
2022/04/11 01:39:49;;;;;;;15.68;8.80;;;2.50;99.90;;;;;;5040855;28;20072;-78
2022/04/11 01:42:14;;;;;;;12.45;6.78;;;2.50;99.90;;;;;;5039788;28;20040;-78
2022/04/11 01:44:40;;;;;;;11.40;5.60;;;2.40;99.90;;;;;;5044122;28;20026;-78
2022/04/11 01:47:06;;;;;;;12.38;5.85;;;2.40;99.90;;;;;;5042516;28;20053;-77
2022/04/11 01:49:37;;;;;;;10.20;6.15;;;2.40;99.90;;;;;;5041911;28;20503;-78
2022/04/11 01:52:09;;;;;;;14.98;6.35;;;2.40;99.90;;;;;;5038903;28;20032;-76
2022/04/11 01:54:35;;;;;;;13.23;7.45;;;2.50;99.90;;;;;;5040229;28;20053;-78
2022/04/11 01:57:01;;;;;;;10.80;6.05;;;2.50;99.90;;;;;;5036665;28;20033;-78
2022/04/11 01:59:26;;;;;;;11.35;5.97;;;2.50;99.90;;;;;;5037963;28;20037;-78
2022/04/11 02:01:55;;;;;;;12.45;5.95;;;2.50;99.90;;;;;;5037640;28;20522;-78
2022/04/11 02:04:28;;;;;;;10.88;5.75;;;2.50;99.90;;;;;;5038393;28;20025;-78
2022/04/11 02:07:02;;;;;;;12.80;6.30;;;2.50;99.90;;;;;;5040221;28;20018;-79
2022/04/11 02:09:31;;;;;;;12.48;5.57;;;2.60;99.90;;;;;;5036023;28;20155;-78
2022/04/11 02:11:56;;;;;;;9.45;5.43;;;2.60;99.90;;;;;;5035126;28;20033;-78
2022/04/11 02:14:22;;;;;;;10.10;5.63;;;2.60;99.90;;;;;;5038854;28;20386;-77
2022/04/11 02:16:51;;;;;;;9.88;4.88;;;2.60;99.90;;;;;;5042587;28;20056;-78
2022/04/11 02:19:16;;;;;;;11.43;5.28;;;2.70;99.90;;;;;;5040685;28;20029;-78
2022/04/11 02:21:42;;;;;;;11.73;5.40;;;2.70;99.90;;;;;;5038257;28;20056;-78
2022/04/11 02:24:08;;;;;;;9.82;5.80;;;2.70;99.90;;;;;;5034466;28;20036;-79
2022/04/11 02:26:39;;;;;;;9.70;5.15;;;2.70;99.90;;;;;;5041900;28;20104;-78
2022/04/11 02:29:08;;;;;;;11.70;5.57;;;2.70;99.90;;;;;;5036252;28;20026;-79
2022/04/11 02:31:37;;;;;;;10.68;5.88;;;2.70;99.90;;;;;;5038334;28;20038;-79
2022/04/11 02:34:08;;;;;;;12.18;5.30;;;2.70;99.90;;;;;;5036571;28;20021;-79
2022/04/11 02:36:34;;;;;;;8.95;5.07;;;2.70;99.90;;;;;;5035576;28;20042;-79
2022/04/11 02:38:59;;;;;;;8.73;5.05;;;2.80;99.90;;;;;;5034726;28;20036;-78
2022/04/11 02:41:40;;;;;;;7.72;4.50;;;2.80;99.90;;;;;;5036515;28;20033;-77
2022/04/11 02:44:09;;;;;;;9.02;4.82;;;2.80;99.90;;;;;;5033624;28;20025;-79
2022/04/11 02:46:34;;;;;;;8.90;4.60;;;2.80;99.90;;;;;;5035906;28;20022;-77
2022/04/11 02:49:00;;;;;;;9.52;4.50;;;2.80;99.90;;;;;;5032667;28;20025;-78
2022/04/11 02:51:26;;;;;;;13.10;6.65;;;2.80;99.90;;;;;;5038435;28;20042;-78
2022/04/11 02:53:51;;;;;;;10.40;5.93;;;2.80;99.90;;;;;;5033977;28;20034;-78
2022/04/11 02:56:17;;;;;;;13.23;5.72;;;2.80;99.90;;;;;;5035270;28;20056;-79
2022/04/11 02:58:43;;;;;;;8.18;4.68;;;2.80;99.90;;;;;;5033826;28;20021;-79
2022/04/11 03:01:24;;;;;;;11.35;5.18;;;2.80;99.90;;;;;;5037486;28;20434;-77
2022/04/11 03:03:49;;;;;;;10.18;5.45;;;2.80;99.90;;;;;;5045087;28;20049;-79
2022/04/11 03:06:18;;;;;;;10.35;5.13;;;2.90;99.90;;;;;;5037299;28;20057;-77
2022/04/11 03:08:43;;;;;;;13.02;5.75;;;2.90;99.90;;;;;;5035610;28;20036;-78
2022/04/11 03:11:09;;;;;;;9.07;5.35;;;2.90;99.90;;;;;;5032005;28;20030;-78
2022/04/11 03:13:35;;;;;;;9.80;5.25;;;3.00;99.90;;;;;;5033732;28;20030;-78
2022/04/11 03:16:04;;;;;;;8.35;4.55;;;3.10;99.90;;;;;;5035719;28;20037;-79
2022/04/11 03:18:29;;;;;;;8.65;4.65;;;3.10;99.90;;;;;;5037626;28;20164;-78
2022/04/11 03:20:55;;;;;;;7.28;4.40;;;3.20;99.90;;;;;;5036197;28;20075;-77
2022/04/11 03:23:24;;;;;;;8.45;5.10;;;3.20;99.90;;;;;;5037251;28;20022;-78
2022/04/11 03:25:49;;;;;;;8.05;4.30;;;3.20;99.90;;;;;;5030846;28;20041;-78
2022/04/11 03:28:26;;;;;;;10.40;4.88;;;3.20;99.90;;;;;;5036099;28;20029;-79
2022/04/11 03:30:52;;;;;;;8.50;4.70;;;3.30;99.90;;;;;;5037525;28;20052;-79
2022/04/11 03:33:18;;;;;;;8.50;5.30;;;3.30;99.90;;;;;;5036166;28;20025;-79
2022/04/11 03:35:43;;;;;;;13.18;5.43;;;3.30;99.90;;;;;;5038945;28;20037;-78
2022/04/11 03:38:09;;;;;;;13.05;5.30;;;3.30;99.90;;;;;;5037169;28;20120;-79
2022/04/11 03:40:44;;;;;;;8.68;4.95;;;3.30;99.90;;;;;;5040791;28;20249;-79
2022/04/11 03:43:25;;;;;;;10.27;5.57;;;3.20;99.90;;;;;;5034410;28;20025;-79
2022/04/11 03:45:51;;;;;;;10.73;5.88;;;3.20;99.90;;;;;;5041975;28;20077;-78
2022/04/11 03:48:17;;;;;;;9.48;4.85;;;3.10;99.90;;;;;;5036377;28;20064;-78
2022/04/11 03:50:45;;;;;;;9.50;5.10;;;3.10;99.90;;;;;;5036713;28;20029;-79
2022/04/11 03:53:16;;;;;;;8.75;5.60;;;3.10;99.90;;;;;;5038771;28;20021;-79
2022/04/11 03:55:47;;;;;;;12.63;5.88;;;3.00;99.90;;;;;;5037462;28;20104;-77
2022/04/11 03:58:16;;;;;;;13.15;7.13;;;3.00;99.90;;;;;;5036400;28;20032;-78
2022/04/11 04:00:42;;;;;;;12.55;5.72;;;3.00;99.90;;;;;;5035737;28;20037;-78
2022/04/11 04:03:09;;;;;;;13.25;6.30;;;3.00;99.90;;;;;;5036352;28;20033;-78
2022/04/11 04:05:46;;;;;;;11.73;6.40;;;3.00;99.90;;;;;;5036035;28;20057;-78
2022/04/11 04:08:13;;;;;;;13.02;6.65;;;3.00;99.90;;;;;;5038901;28;20033;-79
2022/04/11 04:10:40;;;;;;;12.00;6.72;;;2.90;99.90;;;;;;5034512;28;20032;-78
2022/04/11 04:13:12;;;;;;;12.20;6.75;;;2.90;99.90;;;;;;5037906;28;20018;-79
2022/04/11 04:15:40;;;;;;;13.98;6.38;;;2.90;99.90;;;;;;5038537;28;20037;-78
2022/04/11 04:18:06;;;;;;;10.07;6.35;;;2.80;99.90;;;;;;5034691;28;20119;-79
2022/04/11 04:20:35;;;;;;;12.45;6.65;;;2.80;99.90;;;;;;5039050;28;20053;-78
2022/04/11 04:23:00;;;;;;;15.45;6.88;;;2.80;99.90;;;;;;5037319;28;20033;-78
2022/04/11 04:25:26;;;;;;;12.00;6.85;;;2.70;99.90;;;;;;5034970;28;20048;-78
2022/04/11 04:27:52;;;;;;;12.88;7.13;;;2.80;99.90;;;;;;5039174;28;20072;-77
2022/04/11 04:30:21;;;;;;;12.45;7.50;;;2.80;99.90;;;;;;5035913;28;20029;-77
2022/04/11 04:32:48;;;;;;;16.33;8.07;;;2.70;99.90;;;;;;5038545;28;20037;-78
2022/04/11 04:35:19;;;;;;;14.13;7.85;;;2.60;99.90;;;;;;5036746;28;20037;-79
2022/04/11 04:37:52;;;;;;;14.20;7.82;;;2.60;99.90;;;;;;5035754;28;20116;-79
2022/04/11 04:40:21;;;;;;;12.55;7.82;;;2.60;99.90;;;;;;5035011;28;20145;-78
2022/04/11 04:42:53;;;;;;;19.30;9.20;;;2.50;99.90;;;;;;5035649;28;20041;-79
2022/04/11 04:45:19;;;;;;;17.30;8.43;;;2.50;99.90;;;;;;5036090;28;20052;-79
2022/04/11 04:47:48;;;;;;;13.32;8.02;;;2.50;99.90;;;;;;5034277;28;20056;-80
2022/04/11 04:50:17;;;;;;;14.95;7.82;;;2.40;99.90;;;;;;5032723;28;20029;-79
2022/04/11 04:52:45;;;;;;;16.92;8.93;;;2.40;99.90;;;;;;5033584;28;20108;-79
2022/04/11 04:55:18;;;;;;;18.95;8.82;;;2.40;99.90;;;;;;5034015;28;20040;-79
2022/04/11 04:57:46;;;;;;;17.60;8.88;;;2.40;99.90;;;;;;5037465;28;20033;-79
2022/04/11 05:00:12;;;;;;;18.55;9.50;;;2.40;99.90;;;;;;5036871;28;20027;-79
2022/04/11 05:02:43;;;;;;;15.27;8.48;;;2.30;99.90;;;;;;5038439;28;20093;-79
2022/04/11 05:05:14;;;;;;;15.18;8.18;;;2.40;99.90;;;;;;5036201;28;20071;-79
2022/04/11 05:07:42;;;;;;;17.60;8.07;;;2.40;99.90;;;;;;5036961;28;20030;-79
2022/04/11 05:10:11;;;;;;;16.92;8.50;;;2.30;99.90;;;;;;5034753;28;20061;-79
2022/04/11 05:12:45;;;;;;;16.98;9.25;;;2.30;99.90;;;;;;5036953;28;20046;-79
2022/04/11 05:15:17;;;;;;;17.10;9.23;;;2.30;99.90;;;;;;5036603;28;21429;-79
2022/04/11 05:17:49;;;;;;;17.13;9.25;;;2.30;99.90;;;;;;5035225;28;20055;-79
2022/04/11 05:20:14;;;;;;;18.95;9.93;;;2.30;99.90;;;;;;5037195;28;20089;-78
2022/04/11 05:22:46;;;;;;;21.27;8.98;;;2.30;99.90;;;;;;5033489;28;20053;-78
2022/04/11 05:25:12;;;;;;;16.40;8.52;;;2.30;99.90;;;;;;5037476;28;20022;-79
2022/04/11 05:27:38;;;;;;;18.23;8.65;;;2.20;99.90;;;;;;5035488;28;20122;-78
2022/04/11 05:30:10;;;;;;;16.50;9.00;;;2.30;99.90;;;;;;5034020;28;20021;-78
2022/04/11 05:32:39;;;;;;;15.85;8.95;;;2.30;99.90;;;;;;5034038;28;20028;-79
2022/04/11 05:35:05;;;;;;;16.20;8.05;;;2.30;99.90;;;;;;5034964;28;20374;-78
2022/04/11 05:37:34;;;;;;;15.80;7.60;;;2.40;99.90;;;;;;5032512;28;20104;-81
2022/04/11 05:40:03;;;;;;;22.60;9.50;;;2.40;99.90;;;;;;5036392;28;20037;-78
2022/04/11 05:42:32;;;;;;;13.80;8.57;;;2.50;99.90;;;;;;5030742;28;20024;-77
2022/04/11 05:45:00;;;;;;;15.10;8.77;;;2.50;99.90;;;;;;5036068;28;20059;-77
2022/04/11 05:47:32;;;;;;;15.85;8.40;;;2.60;99.90;;;;;;5032557;28;20038;-82
2022/04/11 05:50:19;;;;;;;15.15;8.27;;;2.60;99.90;;;;;;5032977;28;20049;-79
2022/04/11 05:52:45;;;;;;;15.88;8.43;;;2.80;99.90;;;;;;5033509;28;20487;-80
2022/04/11 05:55:11;;;;;;;19.17;8.73;;;2.90;99.90;;;;;;5039579;28;20105;-81
2022/04/11 05:57:37;;;;;;;20.35;8.85;;;3.00;99.90;;;;;;5035591;28;20021;-79
2022/04/11 06:00:06;;;;;;;20.50;8.70;;;3.10;99.90;;;;;;5038568;28;20079;-79
2022/04/11 06:02:38;;;;;;;14.80;8.18;;;3.20;99.90;;;;;;5035240;28;20025;-79
2022/04/11 06:05:07;;;;;;;13.80;8.07;;;3.30;99.90;;;;;;5039656;28;20026;-78
2022/04/11 06:07:33;;;;;;;14.63;8.40;;;3.40;99.90;;;;;;5036688;28;20030;-80
2022/04/11 06:09:59;;;;;;;14.50;7.97;;;3.50;99.90;;;;;;5037508;28;20028;-80
2022/04/11 06:12:37;;;;;;;22.15;8.32;;;3.70;99.90;;;;;;5038928;28;20018;-78
2022/04/11 06:15:06;;;;;;;21.00;8.57;;;3.80;99.90;;;;;;5041153;28;20029;-78
2022/04/11 06:17:32;;;;;;;15.32;8.27;;;3.90;99.90;;;;;;5036173;28;20021;-78
2022/04/11 06:19:59;;;;;;;18.13;9.20;;;3.90;99.90;;;;;;5036686;28;20036;-78
2022/04/11 06:22:26;;;;;;;14.50;8.02;;;4.00;99.90;;;;;;5028737;28;20109;-81
2022/04/11 06:24:59;;;;;;;16.48;7.88;;;4.10;99.90;;;;;;5032262;28;20022;-78
2022/04/11 06:27:25;;;;;;;16.27;8.38;;;4.20;99.90;;;;;;5037420;28;20025;-78
2022/04/11 06:29:56;;;;;;;13.40;7.88;;;4.30;99.90;;;;;;5036586;28;20037;-79
2022/04/11 06:32:30;;;;;;;17.63;8.65;;;4.30;99.90;;;;;;5032652;28;20017;-78
2022/04/11 06:34:56;;;;;;;17.05;8.27;;;4.30;99.90;;;;;;5034064;28;20089;-78
2022/04/11 06:37:23;;;;;;;18.80;9.18;;;4.40;99.90;;;;;;5038406;28;20021;-78
2022/04/11 06:39:49;;;;;;;18.17;9.07;;;4.50;99.90;;;;;;5037667;28;20035;-78
2022/04/11 06:42:17;;;;;;;14.85;8.40;;;4.60;99.90;;;;;;5034976;28;20475;-78
2022/04/11 06:44:43;;;;;;;16.95;8.85;;;4.60;99.90;;;;;;5036749;28;20085;-78
2022/04/11 06:47:09;;;;;;;15.70;8.23;;;4.80;99.90;;;;;;5044876;28;20022;-78
2022/04/11 06:49:41;;;;;;;20.48;7.93;;;4.90;99.90;;;;;;5037446;28;20057;-78
2022/04/11 06:52:07;;;;;;;16.70;8.65;;;4.90;99.90;;;;;;5026991;28;20482;-77
2022/04/11 06:54:36;;;;;;;17.95;7.55;;;5.00;99.90;;;;;;5035226;28;20034;-78
2022/04/11 06:57:01;;;;;;;15.32;7.50;;;5.10;99.90;;;;;;5034212;28;20040;-78
2022/04/11 06:59:33;;;;;;;14.90;8.23;;;5.20;99.90;;;;;;5034407;28;20076;-78
2022/04/11 07:01:59;;;;;;;17.70;8.10;;;5.30;99.90;;;;;;5033111;28;20025;-78
2022/04/11 07:04:25;;;;;;;14.23;6.32;;;5.30;99.90;;;;;;5035086;28;20017;-78
2022/04/11 07:06:50;;;;;;;12.40;6.45;;;5.40;99.90;;;;;;5040235;28;20029;-77
2022/04/11 07:09:16;;;;;;;11.27;6.35;;;5.50;99.90;;;;;;5038090;28;20036;-78
2022/04/11 07:11:41;;;;;;;12.80;5.90;;;5.60;99.90;;;;;;5035118;28;20026;-78
2022/04/11 07:14:07;;;;;;;8.57;5.47;;;5.70;99.90;;;;;;5036973;28;20038;-77
2022/04/11 07:16:39;;;;;;;9.07;5.60;;;5.80;99.90;;;;;;5040445;28;20033;-77
2022/04/11 07:19:06;;;;;;;13.13;4.13;;;5.90;99.90;;;;;;5038223;28;20065;-77
2022/04/11 07:21:32;;;;;;;6.45;2.63;;;6.10;99.90;;;;;;5033640;28;20041;-78
2022/04/11 07:24:07;;;;;;;8.05;3.05;;;6.30;99.90;;;;;;5034729;28;20048;-77
2022/04/11 07:26:36;;;;;;;6.07;2.50;;;6.50;99.90;;;;;;5036981;28;20026;-78
2022/04/11 07:29:05;;;;;;;3.83;2.45;;;6.70;99.90;;;;;;5035504;28;20033;-78
2022/04/11 07:31:30;;;;;;;3.85;2.00;;;6.90;99.40;;;;;;5035654;28;20036;-78
2022/04/11 07:34:01;;;;;;;6.85;1.83;;;7.00;99.00;;;;;;5035381;28;20029;-78
2022/04/11 07:36:28;;;;;;;6.25;2.33;;;7.20;98.60;;;;;;5034838;28;20087;-78
2022/04/11 07:38:55;;;;;;;6.75;2.13;;;7.30;97.30;;;;;;5037400;28;20043;-78
2022/04/11 07:41:27;;;;;;;5.60;2.20;;;7.50;96.40;;;;;;5034284;28;20033;-78
2022/04/11 07:43:57;;;;;;;4.40;2.22;;;7.60;95.90;;;;;;5038279;28;20021;-79
2022/04/11 07:46:28;;;;;;;4.60;2.50;;;7.70;95.40;;;;;;5036439;28;20031;-77
2022/04/11 07:48:53;;;;;;;6.05;1.88;;;7.80;95.50;;;;;;5040026;28;20025;-77
2022/04/11 07:51:20;;;;;;;4.88;2.22;;;8.00;94.70;;;;;;5035903;28;20245;-80
2022/04/11 07:53:46;;;;;;;6.00;2.47;;;8.00;94.20;;;;;;5033417;28;20553;-78
2022/04/11 07:56:11;;;;;;;3.28;2.17;;;8.10;93.70;;;;;;5032381;28;20029;-80
2022/04/11 07:58:46;;;;;;;4.80;2.15;;;8.20;93.00;;;;;;5036216;28;20035;-79
2022/04/11 08:01:16;;;;;;;4.10;1.95;;;8.30;92.70;;;;;;5034022;28;20056;-79
2022/04/11 08:03:44;;;;;;;4.57;2.13;;;8.40;92.40;;;;;;5035032;28;20351;-78
2022/04/11 08:06:10;;;;;;;4.63;1.77;;;8.50;91.70;;;;;;5033655;28;20028;-80
2022/04/11 08:08:44;;;;;;;2.50;1.73;;;8.50;92.00;;;;;;5036710;28;20061;-79
2022/04/11 08:11:25;;;;;;;;;;;8.60;91.40;;;;;;5036164;28;20025;-79
2022/04/11 08:13:51;;;;;;;3.60;1.85;;;8.70;91.10;;;;;;5032840;28;20266;-80
2022/04/11 08:16:20;;;;;;;4.75;1.90;;;8.90;90.20;;;;;;5033648;28;20032;-80
2022/04/11 08:18:46;;;;;;;4.05;1.55;;;8.90;89.30;;;;;;5049505;28;20087;-80
2022/04/11 08:21:14;;;;;;;5.13;1.73;;;9.00;86.30;;;;;;5035785;28;20112;-81
2022/04/11 08:23:40;;;;;;;4.22;1.90;;;9.10;84.10;;;;;;5032753;28;20025;-82
2022/04/11 08:26:08;;;;;;;5.00;2.17;;;9.10;83.50;;;;;;5035374;28;20025;-78
2022/04/11 08:28:40;;;;;;;7.57;1.80;;;9.20;83.50;;;;;;5035138;28;20038;-80
2022/04/11 08:31:08;;;;;;;3.45;1.42;;;9.30;82.10;;;;;;5035614;28;20036;-80
2022/04/11 08:33:37;;;;;;;6.18;1.35;;;9.40;80.60;;;;;;5032762;28;20430;-80
2022/04/11 08:36:06;;;;;;;3.08;1.85;;;9.40;80.20;;;;;;5032525;28;20517;-80
2022/04/11 08:38:41;;;;;;;2.97;1.30;;;9.50;80.30;;;;;;5034562;28;20030;-82
2022/04/11 08:41:13;;;;;;;4.15;1.40;;;9.50;78.90;;;;;;5034990;28;20037;-80
2022/04/11 08:43:39;;;;;;;3.00;1.58;;;9.50;79.00;;;;;;5034871;28;20358;-80
2022/04/11 08:46:06;;;;;;;2.95;1.52;;;9.50;77.70;;;;;;5034984;28;20032;-81
2022/04/11 08:48:42;;;;;;;2.60;1.40;;;9.60;77.10;;;;;;5036085;28;20025;-82
2022/04/11 08:51:08;;;;;;;3.65;1.35;;;9.60;76.00;;;;;;5037592;28;20045;-81
2022/04/11 08:53:36;;;;;;;2.00;1.13;;;9.60;76.90;;;;;;5030514;28;20033;-81
2022/04/11 08:56:17;;;;;;;3.40;1.55;;;9.70;76.80;;;;;;5034829;28;20022;-80
2022/04/11 08:58:46;;;;;;;1.85;1.40;;;9.80;76.90;;;;;;5034982;28;20510;-81
2022/04/11 09:01:12;;;;;;;3.83;1.30;;;9.90;75.80;;;;;;5033600;28;20030;-81
2022/04/11 09:03:42;;;;;;;4.07;1.10;;;9.90;76.50;;;;;;5034297;28;20029;-80
2022/04/11 09:06:09;;;;;;;3.25;1.13;;;10.00;76.10;;;;;;5031007;28;20478;-80
2022/04/11 09:09:06;;;;;;;1.75;0.82;;;10.10;75.50;;;;;;5033544;28;20460;-79
2022/04/11 09:11:36;;;;;;;2.35;1.33;;;10.10;74.80;;;;;;5030390;28;20041;-79
2022/04/11 09:14:05;;;;;;;3.67;1.27;;;10.40;72.70;;;;;;5031379;28;20033;-80
2022/04/11 09:16:52;;;;;;;3.42;1.20;;;10.40;73.50;;;;;;5035641;28;20044;-80
2022/04/11 09:19:21;;;;;;;2.97;1.27;;;10.60;73.10;;;;;;5030457;28;20022;-80
2022/04/11 09:21:50;;;;;;;3.38;1.48;;;10.60;72.40;;;;;;5028983;28;20022;-80
2022/04/11 09:24:19;;;;;;;3.35;1.40;;;10.60;71.90;;;;;;5033478;28;20021;-81
2022/04/11 09:26:46;;;;;;;4.18;1.65;;;10.70;72.20;;;;;;5028640;28;20026;-80
2022/04/11 09:29:12;;;;;;;3.47;1.27;;;10.70;70.90;;;;;;5027199;28;20026;-80
2022/04/11 09:31:40;;;;;;;2.47;1.23;;;10.70;69.10;;;;;;5032677;28;20048;-80
2022/04/11 09:34:20;;;;;;;3.28;1.38;;;10.70;69.50;;;;;;5034164;28;20026;-79
2022/04/11 09:36:52;;;;;;;3.90;1.25;;;10.70;70.20;;;;;;5034681;28;20037;-82
2022/04/11 09:39:26;;;;;;;3.13;1.10;;;10.80;70.60;;;;;;5036088;28;20032;-81
2022/04/11 09:41:52;;;;;;;4.57;0.90;;;10.90;69.10;;;;;;5039686;28;20033;-82
2022/04/11 09:44:29;;;;;;;2.55;1.38;;;10.90;66.70;;;;;;5036009;28;20501;-81
2022/04/11 09:47:05;;;;;;;3.20;1.23;;;11.00;68.00;;;;;;5032736;28;20036;-81
2022/04/11 09:49:39;;;;;;;2.42;1.27;;;11.00;67.60;;;;;;5036063;28;20033;-82
2022/04/11 09:52:15;;;;;;;2.63;1.00;;;11.10;65.80;;;;;;5030595;28;20030;-81
2022/04/11 09:55:07;;;;;;;2.72;1.27;;;11.00;65.80;;;;;;5034267;28;20047;-81
2022/04/11 09:57:37;;;;;;;4.40;1.10;;;11.10;66.10;;;;;;5030851;28;20033;-79
2022/04/11 10:00:04;;;;;;;2.80;1.30;;;11.20;66.30;;;;;;5033665;28;20080;-80
2022/04/11 10:02:30;;;;;;;3.08;1.40;;;11.20;66.00;;;;;;5036613;28;20022;-81
2022/04/11 10:04:58;;;;;;;4.28;2.00;;;11.20;66.00;;;;;;5035032;28;20022;-81
2022/04/11 10:07:24;;;;;;;3.10;1.20;;;11.20;64.50;;;;;;5031725;28;20025;-81
2022/04/11 10:09:59;;;;;;;2.58;1.30;;;11.30;64.80;;;;;;5038875;28;20413;-81
2022/04/11 10:12:25;;;;;;;2.50;1.50;;;11.30;64.40;;;;;;5037768;28;20032;-82
2022/04/11 10:14:52;;;;;;;6.05;1.30;;;11.40;63.80;;;;;;5034656;28;20167;-82
2022/04/11 10:17:18;;;;;;;4.72;1.80;;;11.40;64.40;;;;;;5034921;28;20390;-80
2022/04/11 10:19:53;;;;;;;3.58;1.77;;;11.50;63.00;;;;;;5041674;28;20034;-80
2022/04/11 10:22:27;;;;;;;2.38;1.10;;;11.60;63.70;;;;;;5047977;28;20091;-81
2022/04/11 10:25:04;;;;;;;1.92;1.02;;;11.60;64.60;;;;;;5033135;28;20064;-81
2022/04/11 10:27:34;;;;;;;2.72;1.20;;;11.70;63.90;;;;;;5038135;28;20117;-82
2022/04/11 10:30:03;;;;;;;3.15;1.38;;;11.80;63.70;;;;;;5031119;28;20092;-81
2022/04/11 10:32:57;;;;;;;4.03;1.10;;;11.90;62.00;;;;;;5036916;28;20036;-83
2022/04/11 10:35:53;;;;;;;2.80;1.30;;;12.00;62.00;;;;;;5036927;28;20025;-83
2022/04/11 10:38:24;;;;;;;2.03;1.10;;;12.00;61.80;;;;;;5021095;28;20439;-82
2022/04/11 10:40:56;;;;;;;2.20;1.50;;;12.20;61.30;;;;;;5035783;28;20394;-82
2022/04/11 10:43:25;;;;;;;1.92;1.10;;;12.20;60.60;;;;;;5033597;28;20026;-82
2022/04/11 10:46:00;;;;;;;2.00;1.20;;;12.30;61.30;;;;;;5035167;28;20510;-82
2022/04/11 10:48:58;;;;;;;3.70;1.25;;;12.30;59.40;;;;;;5037532;28;20037;-80
2022/04/11 10:51:24;;;;;;;2.55;1.02;;;12.40;59.30;;;;;;5036674;28;20024;-81
2022/04/11 10:54:19;;;;;;;3.30;1.10;;;12.40;59.80;;;;;;5035686;28;20389;-81
2022/04/11 10:56:49;;;;;;;;;;;12.40;60.10;;;;;;5036601;28;20020;-82
2022/04/11 11:00:01;;;;;;;2.40;1.10;;;12.50;58.10;;;;;;5035574;28;19917;-80
2022/04/11 11:05:36;;;;;;;1.98;1.10;;;12.50;57.10;;;;;;5035482;28;20401;-81
2022/04/11 11:08:17;;;;;;;2.60;1.33;;;12.60;56.70;;;;;;5044602;28;20164;-82
2022/04/11 11:10:52;;;;;;;2.50;1.00;;;12.60;56.70;;;;;;5036568;28;20025;-81
2022/04/11 11:13:44;;;;;;;6.88;1.65;;;12.60;57.00;;;;;;5030034;28;20029;-80
2022/04/11 11:16:23;;;;;;;2.20;1.35;;;12.50;57.60;;;;;;5034537;28;20087;-80
2022/04/11 11:18:50;;;;;;;1.70;1.10;;;12.60;57.70;;;;;;5036355;28;20112;-80
2022/04/11 11:21:37;;;;;;;2.40;1.48;;;12.60;55.40;;;;;;5037083;28;20076;-80
2022/04/11 11:24:21;;;;;;;2.45;1.20;;;12.60;56.70;;;;;;5032905;28;20021;-79
2022/04/11 11:27:04;;;;;;;1.67;1.20;;;12.50;57.20;;;;;;5036944;28;20102;-80
2022/04/11 11:29:42;;;;;;;4.10;1.35;;;12.50;58.00;;;;;;5030844;28;20445;-80
2022/04/11 11:32:12;;;;;;;1.63;0.98;;;12.50;57.20;;;;;;5036516;28;20034;-79
2022/04/11 11:34:42;;;;;;;3.78;1.13;;;12.50;57.30;;;;;;5036788;28;20098;-79
2022/04/11 11:37:12;;;;;;;1.77;1.00;;;12.60;56.60;;;;;;5037195;28;20021;-79
2022/04/11 11:39:45;;;;;;;3.10;1.10;;;12.60;57.00;;;;;;5035394;28;20026;-79
2022/04/11 11:42:14;;;;;;;2.78;1.00;;;12.70;55.60;;;;;;5036452;28;20096;-80
2022/04/11 11:45:09;;;;;;;6.45;1.48;;;12.70;56.60;;;;;;5032664;28;20037;-79
2022/04/11 11:47:35;;;;;;;1.98;0.98;;;12.80;56.50;;;;;;5037962;28;20041;-80
2022/04/11 11:50:06;;;;;;;5.55;1.17;;;12.90;56.20;;;;;;5037195;28;20525;-80
2022/04/11 11:52:37;;;;;;;4.65;1.50;;;13.00;55.40;;;;;;5035533;28;20139;-82
2022/04/11 11:55:21;;;;;;;3.92;1.10;;;13.10;55.50;;;;;;5035134;28;20024;-81
2022/04/11 11:57:46;;;;;;;2.58;1.05;;;13.10;55.10;;;;;;5034105;28;20041;-80
2022/04/11 12:00:24;;;;;;;5.05;1.23;;;13.10;55.30;;;;;;5034711;28;20029;-81
2022/04/11 12:05:34;;;;;;;2.88;1.40;;;13.20;55.00;;;;;;5038220;28;20079;-80
2022/04/11 12:08:13;;;;;;;3.33;1.58;;;13.30;54.90;;;;;;5038007;28;20022;-80
2022/04/11 12:10:48;;;;;;;2.88;1.25;;;13.40;54.80;;;;;;5034224;28;20175;-81
2022/04/11 12:13:28;;;;;;;2.75;1.02;;;13.60;53.40;;;;;;5035902;28;20442;-79
2022/04/11 12:16:09;;;;;;;3.20;1.08;;;13.70;52.00;;;;;;5035664;28;20076;-82
2022/04/11 12:18:55;;;;;;;2.65;1.23;;;13.70;50.30;;;;;;5037476;28;20033;-80
2022/04/11 12:21:34;;;;;;;3.65;1.30;;;13.70;50.90;;;;;;5037430;28;20032;-83
2022/04/11 12:24:02;;;;;;;1.77;1.02;;;13.80;51.30;;;;;;5035135;28;20102;-81
2022/04/11 12:26:31;;;;;;;2.38;1.13;;;14.10;51.40;;;;;;5034931;28;20534;-82
2022/04/11 12:29:23;;;;;;;2.10;1.25;;;14.10;51.10;;;;;;5036072;28;20105;-83
2022/04/11 12:32:14;;;;;;;3.80;1.35;;;14.00;51.40;;;;;;5030787;28;20117;-78
2022/04/11 12:34:45;;;;;;;3.33;1.10;;;14.00;52.20;;;;;;5035983;28;20027;-80
2022/04/11 12:37:16;;;;;;;1.92;1.23;;;14.00;50.80;;;;;;5037152;28;20022;-80
2022/04/11 12:39:59;;;;;;;3.75;1.55;;;14.00;51.00;;;;;;5004961;28;20581;-79
2022/04/11 12:42:26;;;;;;;2.38;1.25;;;14.00;51.40;;;;;;5042234;28;20021;-81
2022/04/11 12:45:06;;;;;;;1.90;1.10;;;14.00;49.90;;;;;;5037136;28;20480;-81
2022/04/11 12:48:01;;;;;;;2.28;1.50;;;14.00;50.90;;;;;;5033245;28;20037;-79
2022/04/11 12:50:31;;;;;;;2.03;1.10;;;14.00;51.70;;;;;;5032292;28;21204;-81
2022/04/11 12:53:00;;;;;;;2.83;1.67;;;14.00;52.40;;;;;;5033547;28;20045;-80
2022/04/11 12:55:30;;;;;;;2.75;1.70;;;14.10;52.50;;;;;;5033077;28;20033;-80
2022/04/11 12:58:04;;;;;;;4.43;1.50;;;14.20;52.70;;;;;;5036298;28;20053;-79
2022/04/11 13:00:34;;;;;;;2.30;1.80;;;14.20;53.10;;;;;;5030658;28;20049;-80
2022/04/11 13:03:00;;;;;;;5.47;1.77;;;14.40;53.10;;;;;;5035767;28;20018;-79
2022/04/11 13:05:27;;;;;;;2.50;1.38;;;14.50;53.90;;;;;;5030591;28;20018;-81
2022/04/11 13:08:02;;;;;;;3.28;1.75;;;14.50;52.90;;;;;;5032140;28;20033;-80
2022/04/11 13:10:30;;;;;;;4.38;1.85;;;14.70;52.70;;;;;;5031162;28;20025;-79
2022/04/11 13:13:03;;;;;;;5.00;1.33;;;14.70;53.20;;;;;;5029523;28;20033;-80